createdAt,value
2018-11-04T00:00:54.681Z,92.35
2018-11-04T00:03:23.980Z,92.86
2018-11-04T00:05:54.288Z,92.97
2018-11-04T00:08:25.193Z,91.84
2018-11-04T00:10:54.517Z,91.70
2018-11-04T00:13:23.900Z,92.10
2018-11-04T00:15:53.200Z,91.58
2018-11-04T00:18:22.373Z,92.50
2018-11-04T00:20:52.385Z,92.20
2018-11-04T00:23:22.823Z,92.91
2018-11-04T00:25:52.076Z,92.13
2018-11-04T00:28:21.500Z,91.85
2018-11-04T00:30:50.799Z,92.81
2018-11-04T00:33:19.970Z,92.84
2018-11-04T00:35:49.270Z,93.26
2018-11-04T00:38:18.872Z,93.82
2018-11-04T00:40:48.216Z,93.07
2018-11-04T00:43:17.504Z,92.66
2018-11-04T00:45:46.724Z,93.47
2018-11-04T00:48:17.717Z,93.58
2018-11-04T00:50:46.933Z,94.18
2018-11-04T00:53:16.249Z,94.04
2018-11-04T00:55:48.845Z,94.09
2018-11-04T00:58:18.427Z,94.13
2018-11-04T01:00:47.997Z,93.74
2018-11-04T01:03:18.708Z,93.61
2018-11-04T01:05:48.312Z,93.65
2018-11-04T01:08:17.649Z,93.75
2018-11-04T01:10:47.908Z,94.34
2018-11-04T01:13:18.308Z,94.95
2018-11-04T01:15:47.624Z,93.96
2018-11-04T01:18:16.792Z,94.16
2018-11-04T01:20:46.418Z,94.24
2018-11-04T01:23:15.797Z,94.31
2018-11-04T01:25:46.707Z,94.92
2018-11-04T01:28:18.766Z,94.80
2018-11-04T01:30:48.284Z,94.19
2018-11-04T01:33:17.621Z,94.36
2018-11-04T01:35:46.932Z,94.11
2018-11-04T01:38:16.251Z,93.79
2018-11-04T01:40:47.460Z,94.06
2018-11-04T01:43:16.661Z,94.42
2018-11-04T01:45:45.953Z,94.30
2018-11-04T01:48:15.251Z,93.95
2018-11-04T01:50:44.546Z,94.82
2018-11-04T01:53:15.639Z,94.78
2018-11-04T01:55:45.196Z,94.75
2018-11-04T01:58:14.393Z,94.31
2018-11-04T02:00:43.614Z,95.02
2018-11-04T02:03:15.172Z,94.54
2018-11-04T02:05:45.695Z,94.12
2018-11-04T02:08:15.373Z,94.57
2018-11-04T02:10:44.602Z,95.19
2018-11-04T02:13:15.798Z,94.29
2018-11-04T02:15:45.978Z,94.61
2018-11-04T02:18:15.285Z,95.18
2018-11-04T02:20:44.563Z,94.70
2018-11-04T02:23:13.835Z,95.16
2018-11-04T02:25:43.353Z,95.27
2018-11-04T02:28:12.655Z,94.43
2018-11-04T02:30:41.983Z,94.54
2018-11-04T02:33:13.131Z,94.55
2018-11-04T02:35:42.432Z,95.56
2018-11-04T02:38:11.676Z,95.48
2018-11-04T02:40:41.008Z,96.17
2018-11-04T02:43:11.050Z,95.73
2018-11-04T02:45:42.235Z,95.99
2018-11-04T02:48:11.552Z,96.03
2018-11-04T02:50:40.735Z,95.50
2018-11-04T02:53:10.086Z,95.75
2018-11-04T02:55:39.468Z,95.93
2018-11-04T02:58:09.272Z,96.34
2018-11-04T03:00:38.482Z,95.85
2018-11-04T03:03:08.099Z,96.66
2018-11-04T03:05:37.346Z,96.42
2018-11-04T03:08:07.478Z,97.13
2018-11-04T03:10:36.769Z,96.96
2018-11-04T03:13:06.138Z,96.73
2018-11-04T03:15:36.833Z,96.49
2018-11-04T03:18:08.343Z,96.75
2018-11-04T03:20:37.700Z,96.45
2018-11-04T03:23:06.913Z,96.57
2018-11-04T03:25:36.163Z,96.52
2018-11-04T03:28:07.284Z,96.64
2018-11-04T03:30:36.843Z,97.20
2018-11-04T03:33:06.375Z,97.07
2018-11-04T03:35:35.635Z,96.52
2018-11-04T03:38:04.877Z,96.92
2018-11-04T03:40:35.133Z,96.96
2018-11-04T03:43:04.391Z,96.39
2018-11-04T03:45:33.821Z,96.46
2018-11-04T03:48:03.147Z,97.12
2018-11-04T03:50:34.473Z,96.75
2018-11-04T03:53:06.174Z,96.82
2018-11-04T03:55:37.751Z,96.43
2018-11-04T03:58:07.390Z,96.89
2018-11-04T04:00:36.729Z,96.99
2018-11-04T04:03:06.193Z,97.72
2018-11-04T04:05:35.504Z,96.93
2018-11-04T04:08:04.940Z,97.17
2018-11-04T04:10:36.266Z,97.07
2018-11-04T04:13:05.684Z,96.73
2018-11-04T04:15:35.000Z,96.66
2018-11-04T04:18:04.865Z,97.17
2018-11-04T04:20:35.356Z,96.65
2018-11-04T04:23:04.630Z,96.78
2018-11-04T04:25:35.681Z,96.53
2018-11-04T04:28:05.147Z,96.94
2018-11-04T04:30:34.912Z,97.33
2018-11-04T04:33:05.374Z,97.21
2018-11-04T04:35:34.728Z,96.77
2018-11-04T04:38:03.869Z,96.65
2018-11-04T04:40:33.587Z,97.19
2018-11-04T04:43:02.916Z,96.96
2018-11-04T04:45:32.105Z,96.94
2018-11-04T04:48:02.365Z,97.66
2018-11-04T04:50:31.652Z,97.65
2018-11-04T04:53:00.804Z,97.21
2018-11-04T04:55:30.014Z,96.30
2018-11-04T04:57:59.289Z,96.47
2018-11-04T05:00:28.654Z,96.47
2018-11-04T05:02:58.008Z,96.23
2018-11-04T05:05:28.581Z,96.84
2018-11-04T05:07:58.636Z,96.45
2018-11-04T05:10:28.005Z,96.87
2018-11-04T05:12:57.468Z,96.92
2018-11-04T05:15:26.777Z,96.39
2018-11-04T05:17:56.316Z,96.40
2018-11-04T05:20:25.710Z,96.84
2018-11-04T05:22:55.365Z,96.98
2018-11-04T05:25:26.975Z,97.33
2018-11-04T05:27:56.275Z,96.71
2018-11-04T05:30:26.703Z,96.25
2018-11-04T05:32:57.382Z,96.67
2018-11-04T05:35:26.685Z,96.33
2018-11-04T05:37:57.315Z,96.51
2018-11-04T05:40:26.648Z,96.87
2018-11-04T05:42:55.980Z,96.54
2018-11-04T05:45:25.316Z,96.53
2018-11-04T05:47:56.315Z,96.56
2018-11-04T05:50:25.692Z,97.29
2018-11-04T05:52:56.180Z,97.12
2018-11-04T05:55:25.705Z,96.02
2018-11-04T05:57:55.042Z,95.41
2018-11-04T06:00:24.202Z,96.24
2018-11-04T06:02:53.531Z,96.64
2018-11-04T06:05:24.328Z,96.71
2018-11-04T06:07:54.783Z,96.31
2018-11-04T06:10:24.110Z,96.91
2018-11-04T06:12:53.390Z,96.61
2018-11-04T06:15:24.411Z,96.87
2018-11-04T06:17:53.735Z,96.54
2018-11-04T06:20:23.056Z,96.41
2018-11-04T06:22:52.373Z,96.30
2018-11-04T06:25:22.957Z,97.03
2018-11-04T06:27:52.345Z,97.14
2018-11-04T06:30:23.419Z,97.32
2018-11-04T06:32:54.838Z,97.12
2018-11-04T06:35:24.232Z,96.33
2018-11-04T06:37:53.565Z,96.30
2018-11-04T06:40:24.516Z,96.51
2018-11-04T06:42:54.006Z,96.75
2018-11-04T06:45:23.178Z,96.89
2018-11-04T06:47:52.466Z,96.32
2018-11-04T06:50:21.780Z,96.67
2018-11-04T06:52:51.103Z,96.26
2018-11-04T06:55:20.416Z,94.52
2018-11-04T06:57:49.723Z,94.62
2018-11-04T07:00:20.193Z,94.53
2018-11-04T07:02:49.557Z,95.05
2018-11-04T07:05:18.836Z,94.01
2018-11-04T07:07:48.106Z,94.73
2018-11-04T07:10:17.444Z,94.24
2018-11-04T07:12:47.659Z,95.22
2018-11-04T07:15:18.609Z,95.14
2018-11-04T07:17:47.745Z,95.83
2018-11-04T07:20:18.275Z,95.64
2018-11-04T07:22:47.613Z,96.04
2018-11-04T07:25:18.925Z,95.89
2018-11-04T07:27:48.286Z,95.76
2018-11-04T07:30:17.605Z,95.78
2018-11-04T07:32:47.702Z,96.60
2018-11-04T07:35:17.114Z,96.67
2018-11-04T07:37:52.530Z,96.67
2018-11-04T07:40:22.461Z,96.44
2018-11-04T07:42:51.745Z,96.30
2018-11-04T07:45:21.325Z,96.02
2018-11-04T07:47:50.750Z,96.16
2018-11-04T07:50:20.790Z,95.53
2018-11-04T07:52:50.053Z,95.65
2018-11-04T07:55:19.379Z,95.21
2018-11-04T07:57:48.662Z,95.97
2018-11-04T08:00:17.968Z,95.91
2018-11-04T08:02:49.490Z,95.28
2018-11-04T08:05:19.208Z,94.84
2018-11-04T08:07:48.537Z,95.03
2018-11-04T08:10:19.499Z,94.88
2018-11-04T08:12:48.858Z,93.75
2018-11-04T08:15:19.830Z,93.24
2018-11-04T08:17:49.408Z,94.00
2018-11-04T08:20:18.756Z,94.61
2018-11-04T08:22:47.988Z,93.65
2018-11-04T08:25:18.643Z,93.73
2018-11-04T08:27:47.987Z,93.38
2018-11-04T08:30:18.282Z,94.35
2018-11-04T08:32:47.601Z,94.27
2018-11-04T08:35:16.883Z,94.93
2018-11-04T08:37:46.075Z,93.89
2018-11-04T08:40:16.425Z,93.60
2018-11-04T08:42:45.817Z,93.74
2018-11-04T08:45:16.096Z,93.38
2018-11-04T08:47:46.042Z,93.45
2018-11-04T08:50:15.319Z,93.28
2018-11-04T08:52:45.094Z,93.48
2018-11-04T08:55:14.423Z,93.15
2018-11-04T08:57:43.943Z,92.13
2018-11-04T09:00:14.502Z,91.58
2018-11-04T09:02:44.428Z,92.23
2018-11-04T09:05:14.726Z,92.59
2018-11-04T09:07:44.255Z,90.96
2018-11-04T09:10:14.924Z,91.43
2018-11-04T09:12:44.952Z,91.20
2018-11-04T09:15:14.401Z,91.29
2018-11-04T09:17:47.043Z,90.98
2018-11-04T09:20:19.539Z,90.97
2018-11-04T09:22:48.932Z,90.55
2018-11-04T09:25:19.626Z,90.27
2018-11-04T09:27:51.112Z,89.58
2018-11-04T09:30:22.497Z,89.51
2018-11-04T09:32:54.755Z,88.79
2018-11-04T09:35:25.893Z,87.98
2018-11-04T09:37:55.549Z,85.99
2018-11-04T09:40:26.305Z,87.18
2018-11-04T09:42:56.133Z,87.24
2018-11-04T09:45:26.275Z,87.53
2018-11-04T09:47:55.436Z,87.11
2018-11-04T09:50:25.904Z,87.72
2018-11-04T09:52:56.424Z,86.85
2018-11-04T09:55:25.820Z,86.25
2018-11-04T09:57:56.059Z,86.45
2018-11-04T10:00:25.428Z,87.26
2018-11-04T10:02:54.757Z,85.39
2018-11-04T10:05:24.019Z,87.48
2018-11-04T10:07:53.424Z,87.95
2018-11-04T10:10:24.218Z,88.25
2018-11-04T10:12:54.020Z,86.34
2018-11-04T10:15:24.906Z,85.77
2018-11-04T10:17:54.308Z,86.37
2018-11-04T10:20:23.695Z,85.66
2018-11-04T10:22:54.496Z,86.33
2018-11-04T10:25:23.735Z,85.19
2018-11-04T10:27:53.188Z,84.05
2018-11-04T10:30:24.004Z,84.30
2018-11-04T10:32:54.877Z,85.71
2018-11-04T10:35:24.052Z,85.57
2018-11-04T10:37:53.225Z,85.75
2018-11-04T10:40:23.020Z,86.19
2018-11-04T10:42:52.523Z,86.52
2018-11-04T10:45:21.746Z,85.59
2018-11-04T10:47:52.848Z,84.41
2018-11-04T10:50:22.170Z,84.70
2018-11-04T10:52:51.701Z,84.10
2018-11-04T10:55:22.991Z,84.87
2018-11-04T10:57:52.245Z,85.35
2018-11-04T11:00:27.771Z,84.56
2018-11-04T11:02:57.087Z,85.68
2018-11-04T11:05:26.933Z,85.89
2018-11-04T11:07:58.170Z,84.84
2018-11-04T11:10:27.554Z,84.46
2018-11-04T11:12:56.852Z,83.39
2018-11-04T11:15:26.328Z,83.54
2018-11-04T11:17:55.801Z,84.33
2018-11-04T11:20:25.054Z,84.73
2018-11-04T11:22:54.541Z,85.41
2018-11-04T11:25:23.797Z,84.95
2018-11-04T11:27:52.966Z,85.61
2018-11-04T11:30:24.259Z,85.71
2018-11-04T11:32:53.524Z,85.96
2018-11-04T11:35:26.722Z,87.12
2018-11-04T11:37:56.235Z,87.28
2018-11-04T11:40:25.496Z,86.79
2018-11-04T11:42:54.840Z,87.59
2018-11-04T11:45:25.204Z,88.16
2018-11-04T11:47:54.640Z,88.12
2018-11-04T11:50:24.035Z,88.46
2018-11-04T11:52:54.529Z,89.05
2018-11-04T11:55:23.898Z,88.14
2018-11-04T11:57:53.064Z,87.98
2018-11-04T12:00:22.322Z,88.47
2018-11-04T12:02:51.768Z,87.17
2018-11-04T12:05:23.958Z,86.92
2018-11-04T12:07:53.164Z,86.88
2018-11-04T12:10:22.418Z,86.95
2018-11-04T12:12:52.627Z,87.20
2018-11-04T12:15:24.252Z,86.24
2018-11-04T12:17:53.731Z,85.00
2018-11-04T12:20:23.528Z,84.81
2018-11-04T12:22:52.898Z,84.45
2018-11-04T12:25:23.826Z,85.50
2018-11-04T12:27:53.362Z,86.22
2018-11-04T12:30:22.689Z,86.52
2018-11-04T12:32:53.228Z,86.35
2018-11-04T12:35:22.604Z,85.07
2018-11-04T12:37:52.090Z,84.29
2018-11-04T12:40:22.963Z,83.83
2018-11-04T12:42:54.659Z,84.10
2018-11-04T12:45:23.995Z,83.23
2018-11-04T12:47:53.692Z,83.01
2018-11-04T12:50:24.016Z,83.04
2018-11-04T12:52:57.298Z,83.73
2018-11-04T12:55:26.533Z,83.84
2018-11-04T12:57:58.530Z,83.55
2018-11-04T13:00:28.429Z,84.51
2018-11-04T13:02:59.256Z,85.42
2018-11-04T13:05:28.457Z,85.92
2018-11-04T13:07:59.565Z,86.24
2018-11-04T13:10:30.715Z,86.73
2018-11-04T13:13:00.118Z,86.80
2018-11-04T13:15:29.521Z,87.75
2018-11-04T13:18:01.376Z,88.02
2018-11-04T13:20:30.696Z,88.12
2018-11-04T13:23:00.024Z,88.06
2018-11-04T13:25:29.491Z,87.94
2018-11-04T13:27:58.795Z,87.43
2018-11-04T13:30:28.296Z,87.09
2018-11-04T13:32:57.556Z,86.36
2018-11-04T13:35:26.913Z,86.94
2018-11-04T13:37:56.633Z,87.73
2018-11-04T13:40:26.430Z,87.83
2018-11-04T13:42:55.752Z,87.03
2018-11-04T13:45:26.492Z,87.14
2018-11-04T13:47:55.988Z,87.95
2018-11-04T13:50:25.273Z,87.45
2018-11-04T13:52:57.767Z,87.72
2018-11-04T13:55:27.177Z,87.81
2018-11-04T13:57:58.414Z,87.66
2018-11-04T14:00:27.787Z,87.58
2018-11-04T14:02:57.278Z,86.24
2018-11-04T14:05:26.740Z,86.79
2018-11-04T14:07:56.164Z,87.49
2018-11-04T14:10:25.571Z,87.99
2018-11-04T14:12:55.041Z,88.74
2018-11-04T14:15:24.293Z,88.60
2018-11-04T14:17:53.799Z,89.13
2018-11-04T14:20:24.860Z,89.00
2018-11-04T14:22:54.781Z,89.21
2018-11-04T14:25:26.684Z,89.23
2018-11-04T14:27:57.304Z,89.66
2018-11-04T14:30:26.732Z,89.48
2018-11-04T14:32:56.202Z,89.43
2018-11-04T14:35:25.604Z,90.11
2018-11-04T14:37:55.664Z,89.84
2018-11-04T14:40:25.117Z,88.87
2018-11-04T14:42:55.593Z,89.01
2018-11-04T14:45:29.320Z,89.32
2018-11-04T14:48:00.684Z,89.54
2018-11-04T14:50:30.041Z,90.26
2018-11-04T14:53:01.066Z,89.78
2018-11-04T14:55:30.426Z,89.09
2018-11-04T14:57:59.612Z,88.96
2018-11-04T15:00:31.436Z,89.23
2018-11-04T15:03:01.609Z,89.17
2018-11-04T15:05:31.057Z,90.51
2018-11-04T15:08:02.355Z,90.34
2018-11-04T15:10:33.926Z,90.04
2018-11-04T15:13:03.460Z,90.92
2018-11-04T15:15:32.976Z,90.76
2018-11-04T15:18:02.341Z,91.35
2018-11-04T15:20:31.644Z,91.33
2018-11-04T15:23:01.510Z,91.83
2018-11-04T15:25:32.150Z,92.40
2018-11-04T15:28:01.593Z,92.74
2018-11-04T15:30:30.938Z,92.55
2018-11-04T15:33:00.805Z,92.26
2018-11-04T15:35:30.739Z,92.06
2018-11-04T15:38:00.528Z,92.29
2018-11-04T15:40:29.889Z,92.02
2018-11-04T15:42:59.220Z,92.28
2018-11-04T15:45:29.056Z,92.09
2018-11-04T15:47:58.203Z,92.66
2018-11-04T15:50:27.673Z,92.78
2018-11-04T15:52:57.071Z,93.89
2018-11-04T15:55:26.754Z,93.84
2018-11-04T15:57:56.242Z,94.39
2018-11-04T16:00:25.763Z,93.79
2018-11-04T16:02:55.331Z,93.57
2018-11-04T16:05:24.656Z,93.15
2018-11-04T16:07:54.155Z,93.31
2018-11-04T16:10:23.479Z,93.35
2018-11-04T16:12:52.730Z,93.95
2018-11-04T16:15:27.126Z,94.14
2018-11-04T16:17:57.364Z,94.49
2018-11-04T16:20:31.195Z,94.01
2018-11-04T16:23:00.562Z,93.43
2018-11-04T16:25:30.355Z,93.27
2018-11-04T16:27:59.919Z,93.20
2018-11-04T16:30:30.086Z,93.49
2018-11-04T16:33:00.442Z,93.14
2018-11-04T16:35:30.041Z,93.61
2018-11-04T16:38:01.256Z,93.86
2018-11-04T16:40:30.512Z,93.89
2018-11-04T16:43:00.176Z,94.00
2018-11-04T16:45:29.673Z,94.42
2018-11-04T16:47:59.187Z,94.32
2018-11-04T16:50:28.944Z,93.62
2018-11-04T16:52:58.306Z,94.00
2018-11-04T16:55:29.003Z,94.54
2018-11-04T16:57:59.970Z,93.71
2018-11-04T17:00:29.704Z,92.72
2018-11-04T17:02:59.015Z,93.47
2018-11-04T17:05:28.378Z,94.21
2018-11-04T17:07:57.479Z,95.18
2018-11-04T17:10:30.285Z,95.06
2018-11-04T17:12:59.817Z,95.28
2018-11-04T17:15:30.129Z,95.63
2018-11-04T17:18:01.601Z,94.85
2018-11-04T17:20:31.530Z,95.53
2018-11-04T17:23:03.568Z,94.69
2018-11-04T17:25:34.420Z,95.00
2018-11-04T17:28:04.395Z,94.63
2018-11-04T17:30:34.018Z,94.29
2018-11-04T17:33:03.477Z,93.84
2018-11-04T17:35:34.299Z,94.09
2018-11-04T17:38:03.545Z,94.36
2018-11-04T17:40:32.965Z,94.73
2018-11-04T17:43:02.833Z,95.33
2018-11-04T17:45:33.027Z,95.87
2018-11-04T17:48:03.185Z,95.64
2018-11-04T17:50:34.750Z,95.72
2018-11-04T17:53:04.309Z,95.36
2018-11-04T17:55:35.099Z,95.75
2018-11-04T17:58:04.657Z,94.88
2018-11-04T18:00:34.008Z,95.07
2018-11-04T18:03:03.353Z,94.89
2018-11-04T18:05:32.650Z,95.37
2018-11-04T18:08:02.906Z,95.93
2018-11-04T18:10:33.163Z,96.22
2018-11-04T18:13:02.692Z,96.73
2018-11-04T18:15:32.174Z,96.74
2018-11-04T18:18:01.655Z,96.64
2018-11-04T18:20:32.127Z,96.93
2018-11-04T18:23:01.765Z,95.83
2018-11-04T18:25:31.236Z,95.42
2018-11-04T18:28:00.628Z,95.64
2018-11-04T18:30:30.782Z,95.05
2018-11-04T18:33:01.836Z,95.39
2018-11-04T18:35:31.362Z,95.55
2018-11-04T18:38:02.199Z,95.82
2018-11-04T18:40:31.495Z,95.46
2018-11-04T18:43:01.100Z,96.53
2018-11-04T18:45:30.917Z,95.66
2018-11-04T18:48:00.282Z,95.47
2018-11-04T18:50:29.610Z,95.59
2018-11-04T18:53:00.924Z,95.11
2018-11-04T18:55:31.602Z,95.69
2018-11-04T18:58:00.949Z,96.00
2018-11-04T19:00:31.073Z,96.77
2018-11-04T19:03:00.507Z,96.43
2018-11-04T19:05:31.530Z,96.26
2018-11-04T19:08:01.041Z,95.24
2018-11-04T19:10:30.538Z,95.48
2018-11-04T19:13:03.239Z,94.85
2018-11-04T19:15:32.504Z,94.96
2018-11-04T19:18:02.366Z,95.65
2018-11-04T19:20:31.902Z,95.68
2018-11-04T19:23:01.224Z,96.03
2018-11-04T19:25:30.516Z,96.33
2018-11-04T19:27:59.847Z,96.87
2018-11-04T19:30:29.287Z,96.67
2018-11-04T19:32:59.963Z,95.81
2018-11-04T19:35:29.739Z,96.46
2018-11-04T19:37:59.031Z,96.26
2018-11-04T19:40:28.266Z,95.96
2018-11-04T19:42:57.544Z,96.24
2018-11-04T19:45:26.948Z,96.18
2018-11-04T19:47:56.150Z,95.33
2018-11-04T19:50:25.455Z,94.85
2018-11-04T19:52:56.912Z,95.64
2018-11-04T19:55:26.191Z,95.87
2018-11-04T19:57:55.464Z,95.79
2018-11-04T20:00:24.760Z,96.35
2018-11-04T20:02:54.013Z,96.87
2018-11-04T20:05:23.405Z,97.58
2018-11-04T20:07:52.657Z,97.19
2018-11-04T20:10:23.195Z,96.89
2018-11-04T20:12:58.425Z,97.73
2018-11-04T20:15:27.545Z,97.34
2018-11-04T20:17:57.183Z,96.08
2018-11-04T20:20:28.688Z,96.79
2018-11-04T20:22:59.265Z,97.01
2018-11-04T20:25:33.633Z,97.93
2018-11-04T20:28:02.997Z,97.58
2018-11-04T20:30:32.273Z,97.03
2018-11-04T20:33:08.749Z,96.61
2018-11-04T20:35:38.222Z,96.00
2018-11-04T20:38:09.307Z,96.11
2018-11-04T20:40:44.181Z,96.30
2018-11-04T20:43:13.525Z,96.85
2018-11-04T20:45:42.908Z,96.75
2018-11-04T20:48:17.517Z,97.20
2018-11-04T20:50:51.925Z,97.18
2018-11-04T20:53:21.213Z,97.66
2018-11-04T20:55:55.997Z,97.70
2018-11-04T20:58:26.529Z,98.70
2018-11-04T21:00:55.801Z,98.27
2018-11-04T21:03:25.133Z,97.65
2018-11-04T21:05:54.284Z,98.14
2018-11-04T21:08:27.675Z,98.16
2018-11-04T21:10:58.165Z,97.76
2018-11-04T21:13:27.741Z,98.04
2018-11-04T21:15:58.722Z,97.84
2018-11-04T21:18:29.689Z,98.16
2018-11-04T21:20:59.675Z,97.75
2018-11-04T21:23:29.005Z,98.48
2018-11-04T21:25:58.274Z,98.59
2018-11-04T21:28:27.713Z,98.91
2018-11-04T21:30:56.991Z,99.33
2018-11-04T21:33:26.209Z,100.00
2018-11-04T21:35:55.525Z,100.00
2018-11-04T21:38:25.254Z,99.79
2018-11-04T21:40:54.609Z,99.87
2018-11-04T21:43:24.094Z,100.00
2018-11-04T21:45:53.229Z,100.00
2018-11-04T21:48:23.309Z,100.00
2018-11-04T21:50:54.522Z,99.98
2018-11-04T21:53:23.817Z,99.58
2018-11-04T21:55:53.197Z,99.23
2018-11-04T21:58:22.449Z,100.00
2018-11-04T22:00:52.429Z,100.00
2018-11-04T22:03:21.971Z,100.00
2018-11-04T22:05:51.153Z,100.00
2018-11-04T22:08:21.638Z,100.00
2018-11-04T22:10:50.970Z,100.00
2018-11-04T22:13:20.284Z,100.00
2018-11-04T22:15:50.361Z,100.00
2018-11-04T22:18:19.736Z,100.00
2018-11-04T22:20:49.051Z,100.00
2018-11-04T22:23:19.999Z,100.00
2018-11-04T22:25:49.226Z,100.00
2018-11-04T22:28:18.516Z,100.00
2018-11-04T22:30:48.844Z,100.00
2018-11-04T22:33:18.136Z,100.00
2018-11-04T22:35:47.526Z,100.00
2018-11-04T22:38:16.880Z,100.00
2018-11-04T22:40:46.658Z,100.00
2018-11-04T22:43:16.001Z,100.00
2018-11-04T22:45:46.447Z,100.00
2018-11-04T22:48:15.689Z,100.00
2018-11-04T22:50:44.953Z,100.00
2018-11-04T22:53:14.299Z,100.00
2018-11-04T22:55:43.582Z,100.00
2018-11-04T22:58:13.881Z,100.00
2018-11-04T23:00:45.835Z,100.00
2018-11-04T23:03:15.152Z,100.00
2018-11-04T23:06:34.337Z,100.00
2018-11-04T23:09:04.742Z,100.00
2018-11-04T23:11:34.074Z,100.00
2018-11-04T23:14:03.446Z,100.00
2018-11-04T23:16:32.812Z,100.00
2018-11-04T23:19:02.864Z,100.00
2018-11-04T23:21:32.059Z,100.00
2018-11-04T23:24:03.091Z,100.00
2018-11-04T23:26:32.357Z,100.00
2018-11-04T23:29:02.855Z,100.00
2018-11-04T23:31:32.089Z,100.00
2018-11-04T23:34:01.288Z,100.00
2018-11-04T23:36:32.067Z,100.00
2018-11-04T23:39:01.474Z,100.00
2018-11-04T23:41:30.824Z,100.00
2018-11-04T23:44:00.131Z,100.00
2018-11-04T23:46:29.429Z,100.00
2018-11-04T23:48:59.900Z,100.00
2018-11-04T23:51:29.181Z,100.00
2018-11-04T23:53:58.449Z,100.00
2018-11-04T23:56:27.714Z,100.00
2018-11-04T23:58:57.458Z,100.00
